Impacts TAF Board INFO
FOR SITUATIONAL AWARENESS. NOT TO BE USED FOR FLIGHT PLANNING PURPOSES.
IDs:

KCVG - Cincinnati Intl, KY, US

Issued at 0115 UTC 25 Feb 2018
Updated at 0150 UTC 25 Feb 2018
Potential Impact None Slight Moderate High
Time0138Z 25/02Z 25/03Z 25/04Z 25/05Z 25/06Z 25/07Z 25/08Z 25/09Z 25/10Z 25/11Z 25/12Z 25/13Z 25/14Z>>
Type OBS PRVL PRVL PRVL PRVL PRVL PRVL PRVL PRVL PRVL PRVL PRVL PRVL PRVL
VIS 2 2 2 2 2 4 4 >6 >6 >6 >6 >6 >6 >6
CIG 29 8 25 25 25 25 25 15 15 15 22 22 22 22
Cover OVC OVC OVC OVC OVC OVC OVC OVC OVC OVC BKN BKN BKN BKN
FltCat IFR IFR IFR IFR IFR MVFR MVFR MVFR MVFR MVFR MVFR MVFR MVFR MVFR
WX RA BR +SHRA BR VCTS +SHRA BR VCTS +SHRA BR VCTS +SHRA BR VCTS SHRA BR VCTS SHRA BR VCTS -SHRA -SHRA -SHRA -- -- -- --
WDir 90 130 160 160 160 200 200 210 210 210 250 250 250 250
WSpd 7 10 12 12 12 16 16 16 16 16 16 16 16 16
WGst -- -- 22 22 22 26 26 32 32 32 32 32 32 32

Raw TAF
KCVG 250115Z 2501/2606 13010KT 2SM +SHRA BR VCTS OVC008CB WS020/19045KT
  FM250300 16012G22KT 2SM +SHRA BR VCTS OVC025CB WS020/19045KT
  FM250600 20016G26KT 4SM SHRA BR VCTS OVC025CB
  FM250800 21016G32KT P6SM -SHRA OVC015
  FM251100 25016G32KT P6SM BKN022
  FM251500 26014G24KT P6SM SCT022
  FM251800 25010G18KT P6SM SCT250
  FM252300 26006KT P6SM SCT250


Raw METAR
KCVG 250138Z 09007KT 2SM RA BR SCT004 OVC029 11/11 A2983 RMK AO2 P0026 T01110106 $
KCVG 250127Z 10004KT 2 1/2SM +RA BR BKN004 OVC037 11/11 A2984 RMK AO2 P0016 T01110106 $
KCVG 250052Z 10007KT 4SM +RA BR OVC005 11/11 A2985 RMK AO2 RAE2356B02 SLP106 P0012 T01110106 $
KCVG 250025Z 09009KT 5SM RA BR BKN006 OVC010 11/11 A2986 RMK AO2 RAE2356B02 P0003 T01110106 $
KCVG 242356Z 08009KT 8SM FEW006 SCT008 OVC011 11/11 A2988 RMK AO2 RAE56 P0000 T01110106 $
KCVG 242352Z 08009KT 2 1/2SM -RA BR FEW006 SCT008 OVC011 11/11 A2988 RMK AO2 SFC VIS 5 SLP117 P0029 60049 T01110106 10128 20106 58010 $
KCVG 242317Z 08007KT 2 1/2SM RA BR FEW004 BKN014 OVC020 11/11 A2991 RMK AO2 SFC VIS 4 VIS 2 36R P0025 T01110106 $
KCVG 242309Z 06006KT 2 1/2SM R18C/5000VP6000FT +RA BR FEW004 SCT017 OVC020 11/11 A2991 RMK AO2 VIS 1 3/4 36R P0023 T01110106 $
KCVG 242303Z 09007KT 1 1/2SM R18C/4500VP6000FT +RA BR FEW004 BKN019 OVC026 11/11 A2991 RMK AO2 TWR VIS 2 1/2 P0018 T01110106 $
KCVG 242252Z VRB03KT 2SM +RA BR SCT016 BKN024 OVC030 11/11 A2991 RMK AO2 TWR VIS 2 1/2 LTG DSNT S SLP125 P0019 T01110106
KCVG 242247Z 11008KT 2SM -RA BR SCT016 BKN024 OVC030 11/11 A2989 RMK AO2 TWR VIS 2 1/2 LTG DSNT S P0018
KCVG 242236Z 11008KT 1 1/2SM RA BR SCT016 BKN024 OVC040 11/11 A2990 RMK AO2 TWR VIS 2 1/2 P0013 T01110106

METAR Board
Radar Display
Forecast Discussion

FOR SITUATIONAL AWARENESS. NOT TO BE USED FOR FLIGHT PLANNING PURPOSES.